sensor_id;sensor_type;location;lat;lon;timestamp;temperature;humidity
66722;SHT31;53633;49.932;10.884;2023-02-26T00:01:17;-0.02;86.59
66722;SHT31;53633;49.932;10.884;2023-02-26T00:03:47;-0.34;86.60
66722;SHT31;53633;49.932;10.884;2023-02-26T00:06:14;-0.78;88.42
66722;SHT31;53633;49.932;10.884;2023-02-26T00:08:41;-0.92;88.91
66722;SHT31;53633;49.932;10.884;2023-02-26T00:11:08;-1.06;89.38
66722;SHT31;53633;49.932;10.884;2023-02-26T00:13:36;-1.17;89.60
66722;SHT31;53633;49.932;10.884;2023-02-26T00:16:09;-1.21;89.49
66722;SHT31;53633;49.932;10.884;2023-02-26T00:18:41;-1.36;89.06
66722;SHT31;53633;49.932;10.884;2023-02-26T00:21:14;-1.31;89.28
66722;SHT31;53633;49.932;10.884;2023-02-26T00:23:42;-1.43;89.25
66722;SHT31;53633;49.932;10.884;2023-02-26T00:26:09;-1.47;89.00
66722;SHT31;53633;49.932;10.884;2023-02-26T00:28:36;-1.48;88.88
66722;SHT31;53633;49.932;10.884;2023-02-26T00:31:03;-1.39;88.02
66722;SHT31;53633;49.932;10.884;2023-02-26T00:33:31;-1.46;87.65
66722;SHT31;53633;49.932;10.884;2023-02-26T00:36:02;-1.33;87.01
66722;SHT31;53633;49.932;10.884;2023-02-26T00:38:35;-1.44;85.65
66722;SHT31;53633;49.932;10.884;2023-02-26T00:41:02;-1.20;85.69
66722;SHT31;53633;49.932;10.884;2023-02-26T00:43:30;-1.24;85.00
66722;SHT31;53633;49.932;10.884;2023-02-26T00:46:02;-1.36;84.86
66722;SHT31;53633;49.932;10.884;2023-02-26T00:48:41;-1.33;84.38
66722;SHT31;53633;49.932;10.884;2023-02-26T00:51:18;-1.43;84.93
66722;SHT31;53633;49.932;10.884;2023-02-26T00:53:53;-1.54;84.78
66722;SHT31;53633;49.932;10.884;2023-02-26T00:56:22;-1.58;84.79
66722;SHT31;53633;49.932;10.884;2023-02-26T00:58:49;-1.50;83.95
66722;SHT31;53633;49.932;10.884;2023-02-26T01:01:16;-1.51;84.39
66722;SHT31;53633;49.932;10.884;2023-02-26T01:03:43;-1.51;83.94
66722;SHT31;53633;49.932;10.884;2023-02-26T01:06:10;-1.58;84.14
66722;SHT31;53633;49.932;10.884;2023-02-26T01:08:44;-1.58;84.15
66722;SHT31;53633;49.932;10.884;2023-02-26T01:11:13;-1.62;84.24
66722;SHT31;53633;49.932;10.884;2023-02-26T01:13:41;-1.68;84.22
66722;SHT31;53633;49.932;10.884;2023-02-26T01:16:11;-1.65;83.89
66722;SHT31;53633;49.932;10.884;2023-02-26T01:18:43;-1.60;83.33
66722;SHT31;53633;49.932;10.884;2023-02-26T01:21:16;-1.82;84.01
66722;SHT31;53633;49.932;10.884;2023-02-26T01:23:49;-1.79;84.70
66722;SHT31;53633;49.932;10.884;2023-02-26T01:26:20;-2.03;84.50
66722;SHT31;53633;49.932;10.884;2023-02-26T01:28:49;-2.02;85.15
66722;SHT31;53633;49.932;10.884;2023-02-26T01:31:29;-1.95;85.31
66722;SHT31;53633;49.932;10.884;2023-02-26T01:34:02;-1.98;85.77
66722;SHT31;53633;49.932;10.884;2023-02-26T01:36:33;-1.79;85.66
66722;SHT31;53633;49.932;10.884;2023-02-26T01:39:07;-1.74;85.59
66722;SHT31;53633;49.932;10.884;2023-02-26T01:41:38;-1.64;85.32
66722;SHT31;53633;49.932;10.884;2023-02-26T01:44:13;-1.57;85.18
66722;SHT31;53633;49.932;10.884;2023-02-26T01:46:53;-1.65;85.32
66722;SHT31;53633;49.932;10.884;2023-02-26T01:49:22;-1.72;84.69
66722;SHT31;53633;49.932;10.884;2023-02-26T01:51:53;-1.68;84.86
66722;SHT31;53633;49.932;10.884;2023-02-26T01:54:23;-1.69;85.02
66722;SHT31;53633;49.932;10.884;2023-02-26T01:56:54;-1.72;85.31
66722;SHT31;53633;49.932;10.884;2023-02-26T01:59:21;-1.69;85.24
66722;SHT31;53633;49.932;10.884;2023-02-26T02:01:49;-1.61;85.39
66722;SHT31;53633;49.932;10.884;2023-02-26T02:04:17;-1.72;85.30
66722;SHT31;53633;49.932;10.884;2023-02-26T02:06:45;-1.58;85.45
66722;SHT31;53633;49.932;10.884;2023-02-26T02:09:12;-1.40;84.86
66722;SHT31;53633;49.932;10.884;2023-02-26T02:11:52;-1.51;84.84
66722;SHT31;53633;49.932;10.884;2023-02-26T02:14:23;-1.40;84.74
66722;SHT31;53633;49.932;10.884;2023-02-26T02:16:57;-1.43;84.70
66722;SHT31;53633;49.932;10.884;2023-02-26T02:19:53;-1.48;85.19
66722;SHT31;53633;49.932;10.884;2023-02-26T02:22:50;-1.39;85.22
66722;SHT31;53633;49.932;10.884;2023-02-26T02:25:30;-1.40;85.44
66722;SHT31;53633;49.932;10.884;2023-02-26T02:28:13;-1.37;85.69
66722;SHT31;53633;49.932;10.884;2023-02-26T02:30:55;-1.27;85.38
66722;SHT31;53633;49.932;10.884;2023-02-26T02:33:29;-1.30;85.18
66722;SHT31;53633;49.932;10.884;2023-02-26T02:36:01;-1.30;85.42
66722;SHT31;53633;49.932;10.884;2023-02-26T02:38:33;-1.16;84.33
66722;SHT31;53633;49.932;10.884;2023-02-26T02:41:05;-1.13;83.90
66722;SHT31;53633;49.932;10.884;2023-02-26T02:43:35;-1.14;83.99
66722;SHT31;53633;49.932;10.884;2023-02-26T02:46:07;-1.04;83.56
66722;SHT31;53633;49.932;10.884;2023-02-26T02:48:37;-0.97;83.26
66722;SHT31;53633;49.932;10.884;2023-02-26T02:51:09;-0.95;83.29
66722;SHT31;53633;49.932;10.884;2023-02-26T02:53:42;-0.88;83.18
66722;SHT31;53633;49.932;10.884;2023-02-26T02:56:13;-0.99;83.21
66722;SHT31;53633;49.932;10.884;2023-02-26T02:58:43;-1.26;82.88
66722;SHT31;53633;49.932;10.884;2023-02-26T03:01:15;-1.26;84.12
66722;SHT31;53633;49.932;10.884;2023-02-26T03:03:47;-1.39;84.84
66722;SHT31;53633;49.932;10.884;2023-02-26T03:06:16;-1.36;84.79
66722;SHT31;53633;49.932;10.884;2023-02-26T03:08:44;-1.57;83.75
66722;SHT31;53633;49.932;10.884;2023-02-26T03:11:11;-1.89;85.48
66722;SHT31;53633;49.932;10.884;2023-02-26T03:13:39;-1.78;85.72
66722;SHT31;53633;49.932;10.884;2023-02-26T03:16:16;-1.75;85.75
66722;SHT31;53633;49.932;10.884;2023-02-26T03:18:51;-1.37;84.79
66722;SHT31;53633;49.932;10.884;2023-02-26T03:21:22;-1.46;84.79
66722;SHT31;53633;49.932;10.884;2023-02-26T03:23:58;-1.13;83.91
66722;SHT31;53633;49.932;10.884;2023-02-26T03:26:30;-1.13;83.61
66722;SHT31;53633;49.932;10.884;2023-02-26T03:29:03;-1.21;83.31
66722;SHT31;53633;49.932;10.884;2023-02-26T03:31:35;-1.04;83.07
66722;SHT31;53633;49.932;10.884;2023-02-26T03:34:07;-1.26;83.70
66722;SHT31;53633;49.932;10.884;2023-02-26T03:36:39;-1.27;83.58
66722;SHT31;53633;49.932;10.884;2023-02-26T03:39:10;-1.17;83.62
66722;SHT31;53633;49.932;10.884;2023-02-26T03:41:43;-1.21;83.46
66722;SHT31;53633;49.932;10.884;2023-02-26T03:44:15;-0.96;83.24
66722;SHT31;53633;49.932;10.884;2023-02-26T03:46:50;-0.89;82.33
66722;SHT31;53633;49.932;10.884;2023-02-26T03:49:20;-0.91;82.86
66722;SHT31;53633;49.932;10.884;2023-02-26T03:51:49;-0.84;82.67
66722;SHT31;53633;49.932;10.884;2023-02-26T03:54:20;-0.88;82.61
66722;SHT31;53633;49.932;10.884;2023-02-26T03:56:47;-0.78;81.75
66722;SHT31;53633;49.932;10.884;2023-02-26T03:59:15;-0.89;82.28
66722;SHT31;53633;49.932;10.884;2023-02-26T04:01:47;-0.76;82.07
66722;SHT31;53633;49.932;10.884;2023-02-26T04:04:19;-0.75;81.93
66722;SHT31;53633;49.932;10.884;2023-02-26T04:06:48;-0.84;82.69
66722;SHT31;53633;49.932;10.884;2023-02-26T04:09:15;-0.74;82.53
66722;SHT31;53633;49.932;10.884;2023-02-26T04:11:42;-0.74;82.50
66722;SHT31;53633;49.932;10.884;2023-02-26T04:14:10;-0.76;82.99
66722;SHT31;53633;49.932;10.884;2023-02-26T04:16:37;-0.76;82.49
66722;SHT31;53633;49.932;10.884;2023-02-26T04:19:05;-0.72;82.47
66722;SHT31;53633;49.932;10.884;2023-02-26T04:21:32;-0.86;83.11
66722;SHT31;53633;49.932;10.884;2023-02-26T04:23:59;-0.78;82.78
66722;SHT31;53633;49.932;10.884;2023-02-26T04:26:26;-0.65;82.98
66722;SHT31;53633;49.932;10.884;2023-02-26T04:28:53;-0.74;83.31
66722;SHT31;53633;49.932;10.884;2023-02-26T04:31:19;-0.78;83.27
66722;SHT31;53633;49.932;10.884;2023-02-26T04:33:46;-0.71;83.47
66722;SHT31;53633;49.932;10.884;2023-02-26T04:36:14;-0.60;83.40
66722;SHT31;53633;49.932;10.884;2023-02-26T04:38:41;-0.61;83.49
66722;SHT31;53633;49.932;10.884;2023-02-26T04:41:08;-0.58;83.53
66722;SHT31;53633;49.932;10.884;2023-02-26T04:43:34;-0.64;83.51
66722;SHT31;53633;49.932;10.884;2023-02-26T04:46:01;-0.68;83.77
66722;SHT31;53633;49.932;10.884;2023-02-26T04:48:28;-0.62;83.80
66722;SHT31;53633;49.932;10.884;2023-02-26T04:50:55;-0.65;83.77
66722;SHT31;53633;49.932;10.884;2023-02-26T04:53:23;-0.96;84.91
66722;SHT31;53633;49.932;10.884;2023-02-26T04:55:50;-0.97;84.95
66722;SHT31;53633;49.932;10.884;2023-02-26T04:58:18;-1.16;85.20
66722;SHT31;53633;49.932;10.884;2023-02-26T05:00:47;-1.12;85.15
66722;SHT31;53633;49.932;10.884;2023-02-26T05:03:14;-1.09;85.06
66722;SHT31;53633;49.932;10.884;2023-02-26T05:05:41;-1.10;84.93
66722;SHT31;53633;49.932;10.884;2023-02-26T05:08:09;-1.47;86.09
66722;SHT31;53633;49.932;10.884;2023-02-26T05:10:37;-1.55;86.65
66722;SHT31;53633;49.932;10.884;2023-02-26T05:13:04;-1.48;86.44
66722;SHT31;53633;49.932;10.884;2023-02-26T05:15:31;-1.26;85.84
66722;SHT31;53633;49.932;10.884;2023-02-26T05:17:58;-1.31;86.29
66722;SHT31;53633;49.932;10.884;2023-02-26T05:20:25;-1.43;86.47
66722;SHT31;53633;49.932;10.884;2023-02-26T05:22:51;-1.33;86.54
66722;SHT31;53633;49.932;10.884;2023-02-26T05:25:18;-1.13;85.93
66722;SHT31;53633;49.932;10.884;2023-02-26T05:27:46;-1.04;85.83
66722;SHT31;53633;49.932;10.884;2023-02-26T05:30:15;-0.99;85.77
66722;SHT31;53633;49.932;10.884;2023-02-26T05:32:42;-0.96;86.07
66722;SHT31;53633;49.932;10.884;2023-02-26T05:35:09;-0.91;85.38
66722;SHT31;53633;49.932;10.884;2023-02-26T05:37:36;-1.06;86.11
66722;SHT31;53633;49.932;10.884;2023-02-26T05:40:06;-0.92;85.11
66722;SHT31;53633;49.932;10.884;2023-02-26T05:42:33;-0.69;84.04
66722;SHT31;53633;49.932;10.884;2023-02-26T05:45:01;-0.82;84.12
66722;SHT31;53633;49.932;10.884;2023-02-26T05:47:28;-0.74;83.75
66722;SHT31;53633;49.932;10.884;2023-02-26T05:49:55;-0.57;82.97
66722;SHT31;53633;49.932;10.884;2023-02-26T05:52:21;-0.76;83.70
66722;SHT31;53633;49.932;10.884;2023-02-26T05:54:48;-0.76;83.95
66722;SHT31;53633;49.932;10.884;2023-02-26T05:57:15;-0.64;83.43
66722;SHT31;53633;49.932;10.884;2023-02-26T05:59:42;-0.69;83.39
66722;SHT31;53633;49.932;10.884;2023-02-26T06:02:10;-0.62;83.47
66722;SHT31;53633;49.932;10.884;2023-02-26T06:04:37;-0.50;82.87
66722;SHT31;53633;49.932;10.884;2023-02-26T06:07:04;-0.68;83.29
66722;SHT31;53633;49.932;10.884;2023-02-26T06:09:30;-0.85;83.58
66722;SHT31;53633;49.932;10.884;2023-02-26T06:11:57;-0.69;83.19
66722;SHT31;53633;49.932;10.884;2023-02-26T06:14:24;-0.68;82.94
66722;SHT31;53633;49.932;10.884;2023-02-26T06:16:51;-0.60;82.16
66722;SHT31;53633;49.932;10.884;2023-02-26T06:19:19;-0.55;81.96
66722;SHT31;53633;49.932;10.884;2023-02-26T06:21:46;-0.54;82.05
66722;SHT31;53633;49.932;10.884;2023-02-26T06:24:12;-0.51;81.56
66722;SHT31;53633;49.932;10.884;2023-02-26T06:26:39;-0.34;81.37
66722;SHT31;53633;49.932;10.884;2023-02-26T06:29:06;-0.28;80.79
66722;SHT31;53633;49.932;10.884;2023-02-26T06:31:33;-0.34;80.90
66722;SHT31;53633;49.932;10.884;2023-02-26T06:34:00;-0.23;80.83
66722;SHT31;53633;49.932;10.884;2023-02-26T06:36:28;-0.19;80.92
66722;SHT31;53633;49.932;10.884;2023-02-26T06:38:55;-0.13;80.72
66722;SHT31;53633;49.932;10.884;2023-02-26T06:41:21;-0.17;81.05
66722;SHT31;53633;49.932;10.884;2023-02-26T06:43:48;-0.16;81.12
66722;SHT31;53633;49.932;10.884;2023-02-26T06:46:15;-0.10;81.36
66722;SHT31;53633;49.932;10.884;2023-02-26T06:48:41;-0.03;81.08
66722;SHT31;53633;49.932;10.884;2023-02-26T06:51:08;0.08;80.72
66722;SHT31;53633;49.932;10.884;2023-02-26T06:53:36;0.15;80.84
66722;SHT31;53633;49.932;10.884;2023-02-26T06:56:03;0.00;81.16
66722;SHT31;53633;49.932;10.884;2023-02-26T06:58:30;0.04;80.74
66722;SHT31;53633;49.932;10.884;2023-02-26T07:00:57;0.08;80.70
66722;SHT31;53633;49.932;10.884;2023-02-26T07:03:24;-0.03;81.30
66722;SHT31;53633;49.932;10.884;2023-02-26T07:05:51;0.04;81.27
66722;SHT31;53633;49.932;10.884;2023-02-26T07:08:18;0.10;80.97
66722;SHT31;53633;49.932;10.884;2023-02-26T07:10:46;0.08;81.21
66722;SHT31;53633;49.932;10.884;2023-02-26T07:13:13;0.15;81.07
66722;SHT31;53633;49.932;10.884;2023-02-26T07:15:40;0.22;81.21
66722;SHT31;53633;49.932;10.884;2023-02-26T07:18:07;0.29;80.97
66722;SHT31;53633;49.932;10.884;2023-02-26T07:20:34;0.32;81.22
66722;SHT31;53633;49.932;10.884;2023-02-26T07:23:01;0.35;81.07
66722;SHT31;53633;49.932;10.884;2023-02-26T07:25:27;0.32;81.54
66722;SHT31;53633;49.932;10.884;2023-02-26T07:27:56;0.31;81.27
66722;SHT31;53633;49.932;10.884;2023-02-26T07:30:22;0.41;81.72
66722;SHT31;53633;49.932;10.884;2023-02-26T07:32:49;0.32;81.49
66722;SHT31;53633;49.932;10.884;2023-02-26T07:35:16;0.24;82.22
66722;SHT31;53633;49.932;10.884;2023-02-26T07:37:43;0.39;81.40
66722;SHT31;53633;49.932;10.884;2023-02-26T07:40:10;0.39;81.47
66722;SHT31;53633;49.932;10.884;2023-02-26T07:42:38;0.42;81.36
66722;SHT31;53633;49.932;10.884;2023-02-26T07:45:07;0.45;81.47
66722;SHT31;53633;49.932;10.884;2023-02-26T07:47:34;0.45;81.14
66722;SHT31;53633;49.932;10.884;2023-02-26T07:50:01;0.44;81.86
66722;SHT31;53633;49.932;10.884;2023-02-26T07:52:27;0.59;81.08
66722;SHT31;53633;49.932;10.884;2023-02-26T07:54:54;0.58;80.40
66722;SHT31;53633;49.932;10.884;2023-02-26T07:57:21;0.55;80.58
66722;SHT31;53633;49.932;10.884;2023-02-26T07:59:48;0.69;80.41
66722;SHT31;53633;49.932;10.884;2023-02-26T08:02:16;0.69;80.06
66722;SHT31;53633;49.932;10.884;2023-02-26T08:04:43;0.76;80.08
66722;SHT31;53633;49.932;10.884;2023-02-26T08:07:10;0.86;79.79
66722;SHT31;53633;49.932;10.884;2023-02-26T08:09:36;1.09;79.06
66722;SHT31;53633;49.932;10.884;2023-02-26T08:12:03;1.69;77.99
66722;SHT31;53633;49.932;10.884;2023-02-26T08:14:30;2.67;75.90
66722;SHT31;53633;49.932;10.884;2023-02-26T08:16:57;3.93;69.86
66722;SHT31;53633;49.932;10.884;2023-02-26T08:19:25;4.52;67.65
66722;SHT31;53633;49.932;10.884;2023-02-26T08:21:52;3.78;68.41
66722;SHT31;53633;49.932;10.884;2023-02-26T08:24:18;3.55;70.30
66722;SHT31;53633;49.932;10.884;2023-02-26T08:26:45;2.79;71.61
66722;SHT31;53633;49.932;10.884;2023-02-26T08:29:12;2.57;73.38
66722;SHT31;53633;49.932;10.884;2023-02-26T08:31:39;3.66;71.80
66722;SHT31;53633;49.932;10.884;2023-02-26T08:34:06;4.45;68.53
66722;SHT31;53633;49.932;10.884;2023-02-26T08:36:34;4.38;67.07
66722;SHT31;53633;49.932;10.884;2023-02-26T08:39:02;4.63;66.12
66722;SHT31;53633;49.932;10.884;2023-02-26T08:41:29;3.78;67.18
66722;SHT31;53633;49.932;10.884;2023-02-26T08:43:55;2.41;68.69
66722;SHT31;53633;49.932;10.884;2023-02-26T08:46:22;2.27;70.41
66722;SHT31;53633;49.932;10.884;2023-02-26T08:48:49;1.73;72.21
66722;SHT31;53633;49.932;10.884;2023-02-26T08:51:16;1.80;72.76
66722;SHT31;53633;49.932;10.884;2023-02-26T08:53:44;1.80;73.42
66722;SHT31;53633;49.932;10.884;2023-02-26T08:56:11;1.70;73.36
66722;SHT31;53633;49.932;10.884;2023-02-26T08:58:38;1.90;73.36
66722;SHT31;53633;49.932;10.884;2023-02-26T09:01:05;1.74;73.17
66722;SHT31;53633;49.932;10.884;2023-02-26T09:03:31;1.87;73.13
66722;SHT31;53633;49.932;10.884;2023-02-26T09:05:58;1.59;73.84
66722;SHT31;53633;49.932;10.884;2023-02-26T09:08:25;1.53;73.43
66722;SHT31;53633;49.932;10.884;2023-02-26T09:10:53;1.81;75.08
66722;SHT31;53633;49.932;10.884;2023-02-26T09:13:20;1.84;75.38
66722;SHT31;53633;49.932;10.884;2023-02-26T09:15:48;1.74;75.56
66722;SHT31;53633;49.932;10.884;2023-02-26T09:18:14;1.79;74.19
66722;SHT31;53633;49.932;10.884;2023-02-26T09:20:42;1.72;75.56
66722;SHT31;53633;49.932;10.884;2023-02-26T09:23:09;1.62;74.63
66722;SHT31;53633;49.932;10.884;2023-02-26T09:25:37;1.72;74.54
66722;SHT31;53633;49.932;10.884;2023-02-26T09:28:05;1.80;75.51
66722;SHT31;53633;49.932;10.884;2023-02-26T09:30:32;1.77;74.71
66722;SHT31;53633;49.932;10.884;2023-02-26T09:32:59;1.84;74.87
66722;SHT31;53633;49.932;10.884;2023-02-26T09:35:25;1.93;75.69
66722;SHT31;53633;49.932;10.884;2023-02-26T09:37:52;1.80;74.42
66722;SHT31;53633;49.932;10.884;2023-02-26T09:40:25;1.31;75.16
66722;SHT31;53633;49.932;10.884;2023-02-26T09:43:06;1.38;73.82
66722;SHT31;53633;49.932;10.884;2023-02-26T09:45:41;1.39;73.68
66722;SHT31;53633;49.932;10.884;2023-02-26T09:48:12;1.32;73.93
66722;SHT31;53633;49.932;10.884;2023-02-26T09:50:42;1.30;73.91
66722;SHT31;53633;49.932;10.884;2023-02-26T09:53:14;1.48;73.67
66722;SHT31;53633;49.932;10.884;2023-02-26T09:55:44;1.42;73.91
66722;SHT31;53633;49.932;10.884;2023-02-26T09:58:18;1.45;73.88
66722;SHT31;53633;49.932;10.884;2023-02-26T10:00:52;1.96;73.15
66722;SHT31;53633;49.932;10.884;2023-02-26T10:03:26;2.24;71.61
66722;SHT31;53633;49.932;10.884;2023-02-26T10:06:12;2.20;71.58
66722;SHT31;53633;49.932;10.884;2023-02-26T10:08:46;2.83;70.63
66722;SHT31;53633;49.932;10.884;2023-02-26T10:11:19;2.93;69.49
66722;SHT31;53633;49.932;10.884;2023-02-26T10:13:52;2.77;70.67
66722;SHT31;53633;49.932;10.884;2023-02-26T10:16:26;2.69;70.30
66722;SHT31;53633;49.932;10.884;2023-02-26T10:18:58;2.38;69.87
66722;SHT31;53633;49.932;10.884;2023-02-26T10:21:32;2.69;71.00
66722;SHT31;53633;49.932;10.884;2023-02-26T10:24:06;2.63;68.26
66722;SHT31;53633;49.932;10.884;2023-02-26T10:26:38;2.71;70.13
66722;SHT31;53633;49.932;10.884;2023-02-26T10:29:16;2.86;69.43
66722;SHT31;53633;49.932;10.884;2023-02-26T10:31:54;2.99;69.11
66722;SHT31;53633;49.932;10.884;2023-02-26T10:34:27;2.66;67.58
66722;SHT31;53633;49.932;10.884;2023-02-26T10:37:03;2.39;68.37
66722;SHT31;53633;49.932;10.884;2023-02-26T10:39:38;2.41;67.63
66722;SHT31;53633;49.932;10.884;2023-02-26T10:42:12;2.41;67.95
66722;SHT31;53633;49.932;10.884;2023-02-26T10:44:48;2.45;66.89
66722;SHT31;53633;49.932;10.884;2023-02-26T10:47:21;2.22;65.52
66722;SHT31;53633;49.932;10.884;2023-02-26T10:49:52;2.59;65.60
66722;SHT31;53633;49.932;10.884;2023-02-26T10:52:22;2.72;64.83
66722;SHT31;53633;49.932;10.884;2023-02-26T10:55:05;2.83;63.43
66722;SHT31;53633;49.932;10.884;2023-02-26T10:57:36;2.72;64.93
66722;SHT31;53633;49.932;10.884;2023-02-26T11:00:15;2.57;65.98
66722;SHT31;53633;49.932;10.884;2023-02-26T11:02:44;2.63;65.82
66722;SHT31;53633;49.932;10.884;2023-02-26T11:05:15;2.59;65.98
66722;SHT31;53633;49.932;10.884;2023-02-26T11:07:44;2.67;65.75
66722;SHT31;53633;49.932;10.884;2023-02-26T11:10:15;2.72;66.62
66722;SHT31;53633;49.932;10.884;2023-02-26T11:12:42;2.50;67.57
66722;SHT31;53633;49.932;10.884;2023-02-26T11:15:16;2.67;68.90
66722;SHT31;53633;49.932;10.884;2023-02-26T11:17:44;2.75;68.46
66722;SHT31;53633;49.932;10.884;2023-02-26T11:20:17;2.86;68.84
66722;SHT31;53633;49.932;10.884;2023-02-26T11:22:47;2.67;68.12
66722;SHT31;53633;49.932;10.884;2023-02-26T11:25:17;2.56;69.00
66722;SHT31;53633;49.932;10.884;2023-02-26T11:27:47;2.57;68.02
66722;SHT31;53633;49.932;10.884;2023-02-26T11:30:17;2.56;68.44
66722;SHT31;53633;49.932;10.884;2023-02-26T11:32:49;2.50;68.82
66722;SHT31;53633;49.932;10.884;2023-02-26T11:35:17;2.41;68.43
66722;SHT31;53633;49.932;10.884;2023-02-26T11:37:47;2.15;68.23
66722;SHT31;53633;49.932;10.884;2023-02-26T11:40:17;2.18;67.40
66722;SHT31;53633;49.932;10.884;2023-02-26T11:42:52;2.41;66.81
66722;SHT31;53633;49.932;10.884;2023-02-26T11:45:21;2.25;67.18
66722;SHT31;53633;49.932;10.884;2023-02-26T11:47:51;2.44;64.34
66722;SHT31;53633;49.932;10.884;2023-02-26T11:50:23;2.52;64.39
66722;SHT31;53633;49.932;10.884;2023-02-26T11:52:54;2.66;64.04
66722;SHT31;53633;49.932;10.884;2023-02-26T11:55:27;2.50;62.65
66722;SHT31;53633;49.932;10.884;2023-02-26T11:57:55;2.50;62.84
66722;SHT31;53633;49.932;10.884;2023-02-26T12:00:29;2.49;62.59
66722;SHT31;53633;49.932;10.884;2023-02-26T12:02:59;2.52;62.62
66722;SHT31;53633;49.932;10.884;2023-02-26T12:05:26;2.48;62.41
66722;SHT31;53633;49.932;10.884;2023-02-26T12:07:53;2.50;62.58
66722;SHT31;53633;49.932;10.884;2023-02-26T12:10:23;2.48;63.27
66722;SHT31;53633;49.932;10.884;2023-02-26T12:13:03;2.63;61.35
66722;SHT31;53633;49.932;10.884;2023-02-26T12:15:39;2.86;61.57
66722;SHT31;53633;49.932;10.884;2023-02-26T12:18:32;2.93;60.94
66722;SHT31;53633;49.932;10.884;2023-02-26T12:21:23;2.90;59.59
66722;SHT31;53633;49.932;10.884;2023-02-26T12:24:13;2.73;61.51
66722;SHT31;53633;49.932;10.884;2023-02-26T12:26:47;2.69;60.14
66722;SHT31;53633;49.932;10.884;2023-02-26T12:29:33;2.57;62.68
66722;SHT31;53633;49.932;10.884;2023-02-26T12:32:35;2.38;65.82
66722;SHT31;53633;49.932;10.884;2023-02-26T12:35:29;2.60;62.34
66722;SHT31;53633;49.932;10.884;2023-02-26T12:38:09;2.55;61.51
66722;SHT31;53633;49.932;10.884;2023-02-26T12:40:53;2.60;63.05
66722;SHT31;53633;49.932;10.884;2023-02-26T12:43:29;2.46;61.60
66722;SHT31;53633;49.932;10.884;2023-02-26T12:46:07;2.75;62.58
66722;SHT31;53633;49.932;10.884;2023-02-26T12:52:10;2.71;60.47
66722;SHT31;53633;49.932;10.884;2023-02-26T12:54:53;2.77;59.83
66722;SHT31;53633;49.932;10.884;2023-02-26T12:57:51;2.77;60.58
66722;SHT31;53633;49.932;10.884;2023-02-26T13:00:34;3.03;59.94
66722;SHT31;53633;49.932;10.884;2023-02-26T13:03:29;3.14;59.46
66722;SHT31;53633;49.932;10.884;2023-02-26T13:06:23;2.96;59.07
66722;SHT31;53633;49.932;10.884;2023-02-26T13:09:01;2.89;58.68
66722;SHT31;53633;49.932;10.884;2023-02-26T13:11:44;2.89;59.45
66722;SHT31;53633;49.932;10.884;2023-02-26T13:14:22;3.00;59.71
66722;SHT31;53633;49.932;10.884;2023-02-26T13:16:55;2.80;58.95
66722;SHT31;53633;49.932;10.884;2023-02-26T13:19:33;2.92;60.18
66722;SHT31;53633;49.932;10.884;2023-02-26T13:22:13;2.80;59.03
66722;SHT31;53633;49.932;10.884;2023-02-26T13:24:46;2.94;59.23
66722;SHT31;53633;49.932;10.884;2023-02-26T13:27:16;2.71;58.76
66722;SHT31;53633;49.932;10.884;2023-02-26T13:29:46;2.53;59.70
66722;SHT31;53633;49.932;10.884;2023-02-26T13:32:16;2.75;60.50
66722;SHT31;53633;49.932;10.884;2023-02-26T13:34:47;3.01;60.96
66722;SHT31;53633;49.932;10.884;2023-02-26T13:37:23;3.07;59.79
66722;SHT31;53633;49.932;10.884;2023-02-26T13:39:59;3.22;59.81
66722;SHT31;53633;49.932;10.884;2023-02-26T13:42:34;3.13;59.30
66722;SHT31;53633;49.932;10.884;2023-02-26T13:45:22;2.27;59.53
66722;SHT31;53633;49.932;10.884;2023-02-26T13:48:09;2.53;60.08
66722;SHT31;53633;49.932;10.884;2023-02-26T13:50:46;2.60;60.27
66722;SHT31;53633;49.932;10.884;2023-02-26T13:56:21;2.92;60.08
66722;SHT31;53633;49.932;10.884;2023-02-26T13:58:51;2.80;59.79
66722;SHT31;53633;49.932;10.884;2023-02-26T14:01:32;2.69;59.52
66722;SHT31;53633;49.932;10.884;2023-02-26T14:04:21;2.55;58.34
66722;SHT31;53633;49.932;10.884;2023-02-26T14:06:49;2.66;58.79
66722;SHT31;53633;49.932;10.884;2023-02-26T14:09:36;2.44;59.37
66722;SHT31;53633;49.932;10.884;2023-02-26T14:12:30;2.21;59.01
66722;SHT31;53633;49.932;10.884;2023-02-26T14:15:30;2.32;59.59
66722;SHT31;53633;49.932;10.884;2023-02-26T14:18:04;2.06;59.31
66722;SHT31;53633;49.932;10.884;2023-02-26T14:20:34;2.17;57.80
66722;SHT31;53633;49.932;10.884;2023-02-26T14:23:13;2.03;56.00
66722;SHT31;53633;49.932;10.884;2023-02-26T14:25:47;2.00;55.93
66722;SHT31;53633;49.932;10.884;2023-02-26T14:28:41;2.14;57.15
66722;SHT31;53633;49.932;10.884;2023-02-26T14:31:19;2.32;57.23
66722;SHT31;53633;49.932;10.884;2023-02-26T14:33:58;2.62;56.74
66722;SHT31;53633;49.932;10.884;2023-02-26T14:36:32;2.75;59.81
66722;SHT31;53633;49.932;10.884;2023-02-26T14:39:00;2.55;60.05
66722;SHT31;53633;49.932;10.884;2023-02-26T14:41:32;2.44;59.92
66722;SHT31;53633;49.932;10.884;2023-02-26T14:44:03;2.31;59.65
66722;SHT31;53633;49.932;10.884;2023-02-26T14:46:34;2.35;59.64
66722;SHT31;53633;49.932;10.884;2023-02-26T14:49:01;2.39;59.17
66722;SHT31;53633;49.932;10.884;2023-02-26T14:51:36;2.11;59.02
66722;SHT31;53633;49.932;10.884;2023-02-26T14:54:22;2.32;60.13
66722;SHT31;53633;49.932;10.884;2023-02-26T14:56:59;2.34;60.76
66722;SHT31;53633;49.932;10.884;2023-02-26T14:59:41;2.31;59.72
66722;SHT31;53633;49.932;10.884;2023-02-26T15:02:22;2.25;59.59
66722;SHT31;53633;49.932;10.884;2023-02-26T15:05:21;2.10;60.70
66722;SHT31;53633;49.932;10.884;2023-02-26T15:11:03;2.18;61.41
66722;SHT31;53633;49.932;10.884;2023-02-26T15:13:46;1.89;62.06
66722;SHT31;53633;49.932;10.884;2023-02-26T15:16:27;2.00;62.26
66722;SHT31;53633;49.932;10.884;2023-02-26T15:19:12;1.97;61.80
66722;SHT31;53633;49.932;10.884;2023-02-26T15:21:49;1.93;61.30
66722;SHT31;53633;49.932;10.884;2023-02-26T15:24:18;1.99;61.78
66722;SHT31;53633;49.932;10.884;2023-02-26T15:26:48;1.93;60.89
66722;SHT31;53633;49.932;10.884;2023-02-26T15:29:16;1.67;61.92
66722;SHT31;53633;49.932;10.884;2023-02-26T15:31:51;1.66;62.03
66722;SHT31;53633;49.932;10.884;2023-02-26T15:34:19;1.69;61.63
66722;SHT31;53633;49.932;10.884;2023-02-26T15:36:50;1.93;60.29
66722;SHT31;53633;49.932;10.884;2023-02-26T15:39:21;1.86;58.76
66722;SHT31;53633;49.932;10.884;2023-02-26T15:41:50;1.86;59.50
66722;SHT31;53633;49.932;10.884;2023-02-26T15:44:21;1.91;60.21
66722;SHT31;53633;49.932;10.884;2023-02-26T15:46:53;1.90;63.06
66722;SHT31;53633;49.932;10.884;2023-02-26T15:49:24;1.90;63.94
66722;SHT31;53633;49.932;10.884;2023-02-26T15:51:52;1.87;63.93
66722;SHT31;53633;49.932;10.884;2023-02-26T15:54:21;1.81;63.13
66722;SHT31;53633;49.932;10.884;2023-02-26T15:56:49;1.73;63.44
66722;SHT31;53633;49.932;10.884;2023-02-26T15:59:17;1.69;64.18
66722;SHT31;53633;49.932;10.884;2023-02-26T16:01:47;1.62;64.58